Time;durP1;ratioP1;P1;durP2;ratioP2;P2;SDS_P1;SDS_P2;PMS_P1;PMS_P2;Temp;Humidity;BMP_temperature;BMP_pressure;BME280_temperature;BME280_humidity;BME280_pressure;Samples;Min_cycle;Max_cycle;Signal;HPM_P1;HPM_P2
2022/06/04 00:01:09;;;;;;;20.25;10.20;;;;;;;;;;4997672;28;20069;-81
2022/06/04 00:03:36;;;;;;;16.55;9.70;;;;;;;;;;4997913;28;20078;-82
2022/06/04 00:06:03;;;;;;;14.45;8.48;;;;;;;;;;4997375;28;20129;-82
2022/06/04 00:08:31;;;;;;;13.13;9.00;;;;;;;;;;4997294;28;20082;-82
2022/06/04 00:16:30;;;;;;;17.13;9.10;;;;;;;;;;4997127;28;20542;-80
2022/06/04 00:18:58;;;;;;;11.65;7.85;;;;;;;;;;4998927;28;20046;-81
2022/06/04 00:21:27;;;;;;;21.10;9.68;;;;;;;;;;4999454;28;20050;-81
2022/06/04 00:23:55;;;;;;;18.77;8.50;;;;;;;;;;5001058;28;20082;-80
2022/06/04 00:26:22;;;;;;;15.57;9.52;;;;;;;;;;5001037;28;20066;-81
2022/06/04 00:28:49;;;;;;;13.48;8.68;;;;;;;;;;4999855;28;20128;-81
2022/06/04 00:31:17;;;;;;;14.18;9.25;;;;;;;;;;4999673;28;20045;-80
2022/06/04 00:33:46;;;;;;;22.00;10.02;;;;;;;;;;4999184;28;20108;-80
2022/06/04 00:36:13;;;;;;;18.33;9.05;;;;;;;;;;5000653;28;20114;-81
2022/06/04 00:38:40;;;;;;;15.85;10.05;;;;;;;;;;4998348;28;20050;-80
2022/06/04 00:41:27;;;;;;;18.42;9.10;;;;;;;;;;5001937;28;20157;-80
2022/06/04 00:44:02;;;;;;;16.50;9.30;;;;;;;;;;5000800;28;20092;-80
2022/06/04 00:47:03;;;;;;;16.15;9.70;;;;;;;;;;4980777;28;20046;-80
2022/06/04 00:49:30;;;;;;;16.42;8.93;;;;;;;;;;4983958;28;20081;-81
2022/06/04 00:51:57;;;;;;;15.77;9.63;;;;;;;;;;4999062;28;20042;-81
2022/06/04 00:54:23;;;;;;;17.40;9.73;;;;;;;;;;4999358;28;20125;-81
2022/06/04 00:57:00;;;;;;;16.30;9.27;;;;;;;;;;4999077;28;20058;-81
2022/06/04 00:59:33;;;;;;;18.35;9.63;;;;;;;;;;5008963;28;20052;-81
2022/06/04 01:02:12;;;;;;;13.70;8.95;;;;;;;;;;4998300;28;20137;-81
2022/06/04 01:04:50;;;;;;;18.20;10.02;;;;;;;;;;4997981;28;20042;-81
2022/06/04 01:07:27;;;;;;;17.17;8.60;;;;;;;;;;4998816;28;20042;-80
2022/06/04 01:10:19;;;;;;;19.42;9.60;;;;;;;;;;5001980;28;20921;-81
2022/06/04 01:13:05;;;;;;;18.45;9.13;;;;;;;;;;5001953;28;20113;-81
2022/06/04 01:15:49;;;;;;;18.92;9.98;;;;;;;;;;5001747;28;20127;-81
2022/06/04 01:18:29;;;;;;;15.27;9.02;;;;;;;;;;4997576;28;20081;-81
2022/06/04 01:21:02;;;;;;;14.95;9.40;;;;;;;;;;4997275;28;20050;-81
2022/06/04 01:24:12;;;;;;;14.40;9.02;;;;;;;;;;4997078;28;20047;-81
2022/06/04 01:27:03;;;;;;;17.23;9.95;;;;;;;;;;4996967;28;20061;-80
2022/06/04 01:29:35;;;;;;;16.55;8.65;;;;;;;;;;4996728;28;20085;-81
2022/06/04 01:32:06;;;;;;;16.35;9.88;;;;;;;;;;4996375;28;20085;-81
2022/06/04 01:34:39;;;;;;;15.52;9.35;;;;;;;;;;4997142;28;20043;-80
2022/06/04 01:37:10;;;;;;;19.67;9.73;;;;;;;;;;4997041;28;20093;-80
2022/06/04 01:42:28;;;;;;;17.23;10.45;;;;;;;;;;4997400;28;20138;-80
2022/06/04 01:45:01;;;;;;;16.17;9.88;;;;;;;;;;4996752;28;20077;-80
2022/06/04 01:47:30;;;;;;;21.08;10.93;;;;;;;;;;4995591;28;20082;-81
2022/06/04 01:49:57;;;;;;;16.35;10.85;;;;;;;;;;4995661;28;20088;-80
2022/06/04 01:52:27;;;;;;;17.33;10.75;;;;;;;;;;4976139;28;20050;-80
2022/06/04 01:55:01;;;;;;;20.70;10.25;;;;;;;;;;4976134;28;20043;-79
2022/06/04 01:57:33;;;;;;;18.50;10.27;;;;;;;;;;4991355;28;20533;-80
2022/06/04 02:00:04;;;;;;;18.23;10.35;;;;;;;;;;4995604;28;20077;-80
2022/06/04 02:02:37;;;;;;;17.08;11.43;;;;;;;;;;5011410;28;20054;-80
2022/06/04 02:05:09;;;;;;;20.60;12.98;;;;;;;;;;5017896;28;20697;-80
2022/06/04 02:07:41;;;;;;;24.92;14.80;;;;;;;;;;5017611;28;20049;-80
2022/06/04 02:10:13;;;;;;;21.92;13.32;;;;;;;;;;5000590;28;20512;-80
2022/06/04 02:12:44;;;;;;;23.30;14.48;;;;;;;;;;4996795;28;20061;-80
2022/06/04 02:15:14;;;;;;;23.05;13.95;;;;;;;;;;4996425;28;20051;-80
2022/06/04 02:17:45;;;;;;;22.73;14.07;;;;;;;;;;4996592;28;20169;-80
2022/06/04 02:20:13;;;;;;;21.15;13.27;;;;;;;;;;4996059;28;20127;-80
2022/06/04 02:22:40;;;;;;;24.90;14.98;;;;;;;;;;4995132;28;20074;-80
2022/06/04 02:25:12;;;;;;;25.45;14.88;;;;;;;;;;4995463;28;20101;-80
2022/06/04 02:27:40;;;;;;;24.73;13.00;;;;;;;;;;4994854;28;20082;-80
2022/06/04 02:30:09;;;;;;;20.10;11.50;;;;;;;;;;4994177;28;20042;-80
2022/06/04 02:32:44;;;;;;;18.48;10.65;;;;;;;;;;4994955;28;20141;-80
2022/06/04 02:35:17;;;;;;;20.85;10.40;;;;;;;;;;4996925;28;20093;-80
2022/06/04 02:37:51;;;;;;;13.38;9.43;;;;;;;;;;5007218;28;20059;-81
2022/06/04 02:40:21;;;;;;;14.38;8.52;;;;;;;;;;5004922;28;20077;-80
2022/06/04 02:42:54;;;;;;;16.55;9.50;;;;;;;;;;4996706;28;20089;-80
2022/06/04 02:45:25;;;;;;;15.25;9.32;;;;;;;;;;4996385;28;20050;-80
2022/06/04 02:47:58;;;;;;;15.30;8.50;;;;;;;;;;4995493;28;20517;-80
2022/06/04 02:50:29;;;;;;;17.00;9.07;;;;;;;;;;4995446;28;20133;-80
2022/06/04 02:52:57;;;;;;;14.55;8.93;;;;;;;;;;4995257;28;20069;-80
2022/06/04 02:55:27;;;;;;;15.02;8.27;;;;;;;;;;4996753;28;20137;-80
2022/06/04 02:57:59;;;;;;;19.73;9.75;;;;;;;;;;5000276;28;20074;-80
2022/06/04 03:00:27;;;;;;;15.52;8.60;;;;;;;;;;5008252;28;20046;-80
2022/06/04 03:02:54;;;;;;;17.20;8.70;;;;;;;;;;4998792;28;20052;-80
2022/06/04 03:05:23;;;;;;;22.70;8.98;;;;;;;;;;4998356;28;20110;-80
2022/06/04 03:07:52;;;;;;;14.60;8.40;;;;;;;;;;4998559;28;20460;-80
2022/06/04 03:10:22;;;;;;;16.15;8.60;;;;;;;;;;4998263;28;20129;-80
2022/06/04 03:12:48;;;;;;;17.02;9.18;;;;;;;;;;4998455;28;20141;-80
2022/06/04 03:15:17;;;;;;;14.73;8.57;;;;;;;;;;4997782;28;20126;-80
2022/06/04 03:17:46;;;;;;;14.40;8.48;;;;;;;;;;4998135;28;20093;-80
2022/06/04 03:20:14;;;;;;;17.30;8.85;;;;;;;;;;4998276;28;20129;-80
2022/06/04 03:22:41;;;;;;;14.23;7.75;;;;;;;;;;4998578;28;20082;-80
2022/06/04 03:25:09;;;;;;;14.38;7.93;;;;;;;;;;4998169;28;20133;-80
2022/06/04 03:27:35;;;;;;;14.57;8.05;;;;;;;;;;4998587;28;20047;-80
2022/06/04 03:30:02;;;;;;;13.32;7.65;;;;;;;;;;4998107;28;20125;-80
2022/06/04 03:32:30;;;;;;;13.50;8.98;;;;;;;;;;4998433;28;20505;-80
2022/06/04 03:34:57;;;;;;;12.80;8.25;;;;;;;;;;4997868;28;20673;-80
2022/06/04 03:37:24;;;;;;;12.45;8.60;;;;;;;;;;4998848;28;20529;-80
2022/06/04 03:39:50;;;;;;;17.73;8.18;;;;;;;;;;4997980;28;20050;-80
2022/06/04 03:42:17;;;;;;;18.10;8.40;;;;;;;;;;4998166;28;20077;-80
2022/06/04 03:44:47;;;;;;;16.77;8.38;;;;;;;;;;4997877;28;20089;-80
2022/06/04 03:47:15;;;;;;;15.23;7.90;;;;;;;;;;4998483;28;20141;-80
2022/06/04 03:49:43;;;;;;;13.18;7.25;;;;;;;;;;4997717;28;20042;-80
2022/06/04 03:52:11;;;;;;;12.43;7.43;;;;;;;;;;4998138;28;20486;-80
2022/06/04 03:54:53;;;;;;;12.30;7.40;;;;;;;;;;4998044;28;20058;-80
2022/06/04 04:00:15;;;;;;;13.57;7.88;;;;;;;;;;4990801;28;20050;-80
2022/06/04 04:02:43;;;;;;;17.77;8.63;;;;;;;;;;5001438;28;20061;-80
2022/06/04 04:05:14;;;;;;;12.55;8.05;;;;;;;;;;5003475;28;20050;-80
2022/06/04 04:07:41;;;;;;;15.07;7.93;;;;;;;;;;5001416;28;20080;-80
2022/06/04 04:10:09;;;;;;;15.88;8.25;;;;;;;;;;4997402;28;20141;-80
2022/06/04 04:12:36;;;;;;;18.83;8.48;;;;;;;;;;4998782;28;20050;-80
2022/06/04 04:15:04;;;;;;;15.60;8.40;;;;;;;;;;4998345;28;20046;-80
2022/06/04 04:17:31;;;;;;;12.57;7.70;;;;;;;;;;5005556;28;20058;-80
2022/06/04 04:19:58;;;;;;;12.90;8.52;;;;;;;;;;5020821;28;20110;-80
2022/06/04 04:22:26;;;;;;;11.93;7.90;;;;;;;;;;5019801;28;20058;-82
2022/06/04 04:24:55;;;;;;;13.93;7.80;;;;;;;;;;5018675;28;20066;-81
2022/06/04 04:27:22;;;;;;;12.68;8.27;;;;;;;;;;5012902;28;20048;-81
2022/06/04 04:29:49;;;;;;;13.18;8.52;;;;;;;;;;4999485;28;20046;-80
2022/06/04 04:32:16;;;;;;;19.27;9.40;;;;;;;;;;4998957;28;20073;-80
2022/06/04 04:34:44;;;;;;;15.60;9.70;;;;;;;;;;4998908;28;20042;-80
2022/06/04 04:37:11;;;;;;;15.45;9.32;;;;;;;;;;4998249;28;20047;-80
2022/06/04 04:39:39;;;;;;;15.68;9.23;;;;;;;;;;4998040;28;20088;-80
2022/06/04 04:42:06;;;;;;;13.80;8.60;;;;;;;;;;4997457;28;20073;-80
2022/06/04 04:44:33;;;;;;;15.57;9.15;;;;;;;;;;4996940;28;20129;-79
2022/06/04 04:47:00;;;;;;;14.70;8.35;;;;;;;;;;4997402;28;20146;-80
2022/06/04 04:49:26;;;;;;;13.32;7.53;;;;;;;;;;4996534;28;20042;-79
2022/06/04 04:51:53;;;;;;;15.90;8.02;;;;;;;;;;4996600;28;20129;-79
2022/06/04 04:54:20;;;;;;;15.57;7.35;;;;;;;;;;5017052;23;20045;-78
2022/06/04 04:56:48;;;;;;;12.63;7.82;;;;;;;;;;5040674;28;20076;-79
2022/06/04 04:59:15;;;;;;;17.48;8.10;;;;;;;;;;5038389;28;20064;-78
2022/06/04 05:01:42;;;;;;;11.88;7.85;;;;;;;;;;5039567;28;20084;-79
2022/06/04 05:04:09;;;;;;;14.30;8.07;;;;;;;;;;5044290;28;20045;-78
2022/06/04 05:06:36;;;;;;;16.38;7.93;;;;;;;;;;5047812;28;20077;-78
2022/06/04 05:09:03;;;;;;;15.38;7.72;;;;;;;;;;5045166;28;20042;-79
2022/06/04 05:11:33;;;;;;;16.65;7.80;;;;;;;;;;5043197;28;20057;-78
2022/06/04 05:14:02;;;;;;;20.05;8.63;;;;;;;;;;5042124;28;20500;-78
2022/06/04 05:16:30;;;;;;;18.67;9.63;;;;;;;;;;5046571;28;20057;-76
2022/06/04 05:18:57;;;;;;;19.90;9.32;;;;;;;;;;5043241;28;20061;-78
2022/06/04 05:21:26;;;;;;;17.48;10.45;;;;;;;;;;5038711;28;20092;-78
2022/06/04 05:23:55;;;;;;;15.13;8.65;;;;;;;;;;5039652;28;20045;-78
2022/06/04 05:26:23;;;;;;;16.48;9.07;;;;;;;;;;5039135;28;20046;-78
2022/06/04 05:28:50;;;;;;;13.77;7.60;;;;;;;;;;5038307;28;20508;-77
2022/06/04 05:31:18;;;;;;;16.73;8.60;;;;;;;;;;5038191;28;20389;-78
2022/06/04 05:33:45;;;;;;;15.52;8.77;;;;;;;;;;5039413;28;20045;-79
2022/06/04 05:36:12;;;;;;;15.02;8.43;;;;;;;;;;5037419;28;20722;-77
2022/06/04 05:38:39;;;;;;;14.07;8.75;;;;;;;;;;5034777;28;20084;-78
2022/06/04 05:41:08;;;;;;;18.02;9.43;;;;;;;;;;5036335;28;20049;-78
2022/06/04 05:43:36;;;;;;;19.67;9.70;;;;;;;;;;5034529;28;20041;-79
2022/06/04 05:46:06;;;;;;;17.02;8.95;;;;;;;;;;5036322;28;20058;-78
2022/06/04 05:48:38;;;;;;;15.15;8.57;;;;;;;;;;5036206;28;20045;-79
2022/06/04 05:51:05;;;;;;;13.55;8.80;;;;;;;;;;5035982;28;20099;-77
2022/06/04 05:53:31;;;;;;;15.25;8.00;;;;;;;;;;5036433;28;20443;-78
2022/06/04 05:55:58;;;;;;;15.73;8.70;;;;;;;;;;5036862;28;20045;-79
2022/06/04 05:58:25;;;;;;;14.95;7.78;;;;;;;;;;5039311;28;20053;-78
2022/06/04 06:00:59;;;;;;;13.00;7.47;;;;;;;;;;5038194;28;20064;-77
2022/06/04 06:03:26;;;;;;;12.52;7.63;;;;;;;;;;5035706;28;20049;-78
2022/06/04 06:05:54;;;;;;;20.25;7.35;;;;;;;;;;5036376;28;20045;-78
2022/06/04 06:08:20;;;;;;;13.57;7.80;;;;;;;;;;5046365;28;20050;-78
2022/06/04 06:10:47;;;;;;;11.98;6.25;;;;;;;;;;5048330;28;20317;-78
2022/06/04 06:13:14;;;;;;;12.73;6.15;;;;;;;;;;5040869;28;20057;-78
2022/06/04 06:15:40;;;;;;;10.07;6.60;;;;;;;;;;5036322;28;20053;-80
2022/06/04 06:18:08;;;;;;;9.82;6.20;;;;;;;;;;5040112;28;20045;-78
2022/06/04 06:20:36;;;;;;;13.77;5.78;;;;;;;;;;5038796;28;20045;-79
2022/06/04 06:23:04;;;;;;;12.00;6.25;;;;;;;;;;5038622;28;20072;-79
2022/06/04 06:25:30;;;;;;;10.75;6.63;;;;;;;;;;5036088;28;20104;-77
2022/06/04 06:27:58;;;;;;;12.35;6.68;;;;;;;;;;5034383;28;20085;-79
2022/06/04 06:30:25;;;;;;;9.48;5.97;;;;;;;;;;5033761;28;20084;-79
2022/06/04 06:32:51;;;;;;;11.70;6.47;;;;;;;;;;5036092;28;20053;-79
2022/06/04 06:35:18;;;;;;;12.75;5.72;;;;;;;;;;5034814;28;20119;-81
2022/06/04 06:37:45;;;;;;;11.95;5.75;;;;;;;;;;5037256;28;20041;-76
2022/06/04 06:40:14;;;;;;;12.85;6.05;;;;;;;;;;5041359;28;20472;-79
2022/06/04 06:42:41;;;;;;;13.63;5.90;;;;;;;;;;5036630;28;20088;-78
2022/06/04 06:45:09;;;;;;;11.52;6.43;;;;;;;;;;5036505;28;20455;-78
2022/06/04 06:47:36;;;;;;;13.05;7.13;;;;;;;;;;5036671;28;20120;-79
2022/06/04 06:50:03;;;;;;;12.18;6.32;;;;;;;;;;5036607;28;20080;-80
2022/06/04 06:52:30;;;;;;;15.50;6.57;;;;;;;;;;5036235;28;20053;-79
2022/06/04 06:54:57;;;;;;;14.15;6.43;;;;;;;;;;5034466;28;20079;-76
2022/06/04 06:57:25;;;;;;;10.85;6.30;;;;;;;;;;5038192;28;20085;-78
2022/06/04 06:59:52;;;;;;;11.82;6.25;;;;;;;;;;5037955;28;20053;-78
2022/06/04 07:02:18;;;;;;;11.63;6.78;;;;;;;;;;5038767;28;20045;-80
2022/06/04 07:04:45;;;;;;;13.48;6.70;;;;;;;;;;5035360;28;20045;-79
2022/06/04 07:07:12;;;;;;;12.73;7.35;;;;;;;;;;5034601;28;20049;-79
2022/06/04 07:09:41;;;;;;;12.80;6.82;;;;;;;;;;5034633;28;20129;-78
2022/06/04 07:12:10;;;;;;;13.55;6.78;;;;;;;;;;5034039;28;20531;-78
2022/06/04 07:14:40;;;;;;;11.52;6.30;;;;;;;;;;5034721;28;20615;-78
2022/06/04 07:17:07;;;;;;;11.63;7.43;;;;;;;;;;5035513;28;20463;-79
2022/06/04 07:19:35;;;;;;;12.13;6.97;;;;;;;;;;5036070;28;20489;-79
2022/06/04 07:22:02;;;;;;;9.07;6.28;;;;;;;;;;5036071;28;20072;-78
2022/06/04 07:24:29;;;;;;;12.05;6.47;;;;;;;;;;5034356;28;20125;-78
2022/06/04 07:26:57;;;;;;;16.60;7.22;;;;;;;;;;5035840;28;20050;-81
2022/06/04 07:29:24;;;;;;;9.85;6.30;;;;;;;;;;5034764;28;20128;-81
2022/06/04 07:31:52;;;;;;;10.13;6.78;;;;;;;;;;5035572;28;20085;-80
2022/06/04 07:34:19;;;;;;;12.85;5.97;;;;;;;;;;5036868;28;20044;-79
2022/06/04 07:36:46;;;;;;;18.25;11.18;;;;;;;;;;5040218;28;20489;-76
2022/06/04 07:39:17;;;;;;;15.73;7.50;;;;;;;;;;5043269;28;20053;-82
2022/06/04 07:41:44;;;;;;;;;;;;;;;;;;5040801;28;20064;-78
2022/06/04 07:44:12;;;;;;;9.88;4.88;;;;;;;;;;5044377;28;20400;-79
2022/06/04 07:46:40;;;;;;;9.20;5.30;;;;;;;;;;5049556;28;20045;-81
2022/06/04 07:49:10;;;;;;;10.77;5.60;;;;;;;;;;5046184;28;20054;-80
2022/06/04 07:51:38;;;;;;;10.80;5.25;;;;;;;;;;5045094;28;20093;-81
2022/06/04 07:54:08;;;;;;;8.48;4.53;;;;;;;;;;5044480;28;20064;-80
2022/06/04 07:56:36;;;;;;;8.07;4.38;;;;;;;;;;5049211;28;20109;-79
2022/06/04 07:59:03;;;;;;;12.15;5.90;;;;;;;;;;5046898;28;20052;-79
2022/06/04 08:01:30;;;;;;;5.32;3.92;;;;;;;;;;5046166;28;20053;-80
2022/06/04 08:03:57;;;;;;;7.28;4.10;;;;;;;;;;5043999;28;20049;-78
2022/06/04 08:06:25;;;;;;;9.07;4.00;;;;;;;;;;5044046;28;20045;-81
2022/06/04 08:08:55;;;;;;;8.88;4.70;;;;;;;;;;5044300;28;20045;-80
2022/06/04 08:11:31;;;;;;;11.27;5.20;;;;;;;;;;5045422;28;20515;-81
2022/06/04 08:13:59;;;;;;;8.13;3.95;;;;;;;;;;5042810;28;20081;-79
2022/06/04 08:16:25;;;;;;;9.73;5.68;;;;;;;;;;5042498;28;20095;-80
2022/06/04 08:18:52;;;;;;;9.07;4.22;;;;;;;;;;5047624;28;20072;-81
2022/06/04 08:21:19;;;;;;;10.55;4.50;;;;;;;;;;5043415;28;20049;-79
2022/06/04 08:23:47;;;;;;;12.50;5.85;;;;;;;;;;5044815;28;20076;-78
2022/06/04 08:26:14;;;;;;;8.65;4.60;;;;;;;;;;5041985;28;20551;-80
2022/06/04 08:28:41;;;;;;;8.50;4.63;;;;;;;;;;5045685;28;20505;-80
2022/06/04 08:31:10;;;;;;;12.73;5.15;;;;;;;;;;5040489;28;20076;-80
2022/06/04 08:33:37;;;;;;;11.50;5.70;;;;;;;;;;5041839;28;20053;-79
2022/06/04 08:36:05;;;;;;;24.27;10.48;;;;;;;;;;5045319;28;20064;-80
2022/06/04 08:38:31;;;;;;;10.98;6.25;;;;;;;;;;5047398;28;20092;-79
2022/06/04 08:41:03;;;;;;;8.88;5.35;;;;;;;;;;5043319;28;20056;-79
2022/06/04 08:43:38;;;;;;;8.25;5.15;;;;;;;;;;5041923;28;20491;-79
2022/06/04 08:46:12;;;;;;;10.15;6.40;;;;;;;;;;5040417;28;20484;-79
2022/06/04 08:48:39;;;;;;;11.82;5.95;;;;;;;;;;5042756;28;20439;-78
2022/06/04 08:51:18;;;;;;;9.93;6.10;;;;;;;;;;5045101;28;20045;-80
2022/06/04 08:53:53;;;;;;;10.57;6.57;;;;;;;;;;5039657;28;20407;-78
2022/06/04 08:59:20;;;;;;;10.82;6.43;;;;;;;;;;5039363;28;20057;-79
2022/06/04 09:01:53;;;;;;;10.05;5.93;;;;;;;;;;5040304;28;20073;-78
2022/06/04 09:04:49;;;;;;;9.32;5.38;;;;;;;;;;5041640;28;20544;-79
2022/06/04 09:07:19;;;;;;;10.25;6.00;;;;;;;;;;5038422;28;20477;-79
2022/06/04 09:09:53;;;;;;;11.27;5.40;;;;;;;;;;5039032;28;20103;-79
2022/06/04 09:12:30;;;;;;;9.35;5.22;;;;;;;;;;5038330;28;20069;-79
2022/06/04 09:15:02;;;;;;;12.07;6.05;;;;;;;;;;5036098;28;20053;-84
2022/06/04 09:17:38;;;;;;;13.60;7.35;;;;;;;;;;5040885;28;20053;-81
2022/06/04 09:20:18;;;;;;;12.82;6.70;;;;;;;;;;5043699;28;20085;-81
2022/06/04 09:22:47;;;;;;;;;;;;;;;;;;5045554;28;20129;-82
2022/06/04 09:25:14;;;;;;;10.15;6.13;;;;;;;;;;5045865;28;19921;-81
2022/06/04 09:27:46;;;;;;;8.00;4.35;;;;;;;;;;5042772;28;20049;-81
2022/06/04 09:30:22;;;;;;;9.00;5.32;;;;;;;;;;5044194;28;20050;-80
2022/06/04 09:33:36;;;;;;;6.75;4.07;;;;;;;;;;5051740;28;20044;-81
2022/06/04 09:36:03;;;;;;;8.43;4.25;;;;;;;;;;5046978;28;20050;-80
2022/06/04 09:38:31;;;;;;;8.52;3.85;;;;;;;;;;5047998;28;20133;-79
2022/06/04 09:41:01;;;;;;;6.45;4.15;;;;;;;;;;5039292;28;20068;-81
2022/06/04 09:43:30;;;;;;;8.60;4.13;;;;;;;;;;5038459;28;20045;-80
2022/06/04 09:46:00;;;;;;;9.20;4.47;;;;;;;;;;5041594;28;20050;-82
2022/06/04 09:48:30;;;;;;;7.30;4.47;;;;;;;;;;5031673;28;20061;-80
2022/06/04 09:50:58;;;;;;;;;;;;;;;;;;5040582;28;20077;-83
2022/06/04 09:53:28;;;;;;;8.63;4.93;;;;;;;;;;5050111;28;19927;-83
2022/06/04 09:55:58;;;;;;;7.50;4.70;;;;;;;;;;5049628;28;20041;-80
2022/06/04 09:58:30;;;;;;;12.10;5.78;;;;;;;;;;5033555;28;20056;-80
2022/06/04 10:01:01;;;;;;;9.38;5.30;;;;;;;;;;5037488;28;20471;-82
2022/06/04 10:03:30;;;;;;;9.13;5.35;;;;;;;;;;5038126;28;20081;-82
2022/06/04 10:06:03;;;;;;;11.43;6.22;;;;;;;;;;5036408;28;20045;-83
2022/06/04 10:09:54;;;;;;;8.40;6.22;;;;;;;;;;5037420;28;20111;-83
2022/06/04 10:11:20;;;;;;;13.13;7.68;;;;;;;;;;5040866;28;20046;-78
2022/06/04 10:13:50;;;;;;;10.75;5.72;;;;;;;;;;5044057;28;20477;-81
2022/06/04 10:16:19;;;;;;;13.63;6.40;;;;;;;;;;5028109;28;20054;-81
2022/06/04 10:18:59;;;;;;;11.88;6.00;;;;;;;;;;5024460;28;20481;-81
2022/06/04 10:21:28;;;;;;;11.63;6.90;;;;;;;;;;5019093;28;20054;-82
2022/06/04 10:23:57;;;;;;;16.23;8.00;;;;;;;;;;5015470;28;20327;-81
2022/06/04 10:26:47;;;;;;;10.98;6.15;;;;;;;;;;5015611;28;20048;-81
2022/06/04 10:29:34;;;;;;;12.35;6.65;;;;;;;;;;5016936;28;20077;-81
2022/06/04 10:32:08;;;;;;;13.15;7.95;;;;;;;;;;5017918;28;20058;-82
2022/06/04 10:34:53;;;;;;;14.65;8.77;;;;;;;;;;5019185;28;20057;-81
2022/06/04 10:37:40;;;;;;;10.52;6.45;;;;;;;;;;5023974;28;20065;-80
2022/06/04 10:40:33;;;;;;;10.35;6.38;;;;;;;;;;5024869;28;20107;-81
2022/06/04 10:43:09;;;;;;;11.18;6.65;;;;;;;;;;5016469;28;20137;-80
2022/06/04 10:45:41;;;;;;;11.20;6.80;;;;;;;;;;5016223;28;20042;-80
2022/06/04 10:48:12;;;;;;;13.02;7.90;;;;;;;;;;5016357;28;20053;-80
2022/06/04 10:53:47;;;;;;;15.48;9.20;;;;;;;;;;5015630;28;20056;-81
2022/06/04 10:56:20;;;;;;;15.30;9.35;;;;;;;;;;5017655;28;20065;-81
2022/06/04 10:58:52;;;;;;;14.43;8.80;;;;;;;;;;5025600;28;20389;-80
2022/06/04 11:01:31;;;;;;;15.05;8.98;;;;;;;;;;5036418;28;20092;-80
2022/06/04 11:04:12;;;;;;;15.20;8.15;;;;;;;;;;5036960;28;20049;-81
2022/06/04 11:06:43;;;;;;;13.82;8.10;;;;;;;;;;5037208;28;20103;-80
2022/06/04 11:09:15;;;;;;;14.75;8.20;;;;;;;;;;5036373;28;20351;-81
2022/06/04 11:11:48;;;;;;;14.45;7.15;;;;;;;;;;5035575;28;20589;-80
2022/06/04 11:14:24;;;;;;;14.13;7.60;;;;;;;;;;5036101;28;20077;-80
2022/06/04 11:16:59;;;;;;;14.05;8.38;;;;;;;;;;5038472;28;20081;-81
2022/06/04 11:19:33;;;;;;;20.10;11.70;;;;;;;;;;5040624;28;20056;-80
2022/06/04 11:22:05;;;;;;;13.27;7.70;;;;;;;;;;5039902;28;20069;-81
2022/06/04 11:24:40;;;;;;;15.45;8.85;;;;;;;;;;5038975;28;20456;-80
2022/06/04 11:27:12;;;;;;;14.50;7.72;;;;;;;;;;5039562;28;20591;-80
2022/06/04 11:29:40;;;;;;;11.23;7.15;;;;;;;;;;5038835;28;20087;-81
2022/06/04 11:32:15;;;;;;;13.20;8.48;;;;;;;;;;5039354;28;20181;-81
2022/06/04 11:35:04;;;;;;;15.80;8.30;;;;;;;;;;5040108;28;20092;-80
2022/06/04 11:37:49;;;;;;;12.18;7.25;;;;;;;;;;5039978;28;20046;-80
2022/06/04 11:40:26;;;;;;;10.27;7.40;;;;;;;;;;5040201;28;20085;-80
2022/06/04 11:42:57;;;;;;;9.90;7.18;;;;;;;;;;5039359;28;20077;-81
2022/06/04 11:45:48;;;;;;;10.65;8.02;;;;;;;;;;5039369;28;20064;-81
2022/06/04 11:48:43;;;;;;;15.02;8.05;;;;;;;;;;5039812;28;20109;-81
2022/06/04 11:51:23;;;;;;;13.27;7.65;;;;;;;;;;5037143;28;20500;-81
2022/06/04 11:53:53;;;;;;;11.93;7.50;;;;;;;;;;5038803;28;20067;-80
2022/06/04 11:56:30;;;;;;;11.25;7.32;;;;;;;;;;5037904;28;20080;-81
2022/06/04 11:59:11;;;;;;;12.02;7.00;;;;;;;;;;5028857;28;20531;-81
2022/06/04 12:01:41;;;;;;;10.68;7.43;;;;;;;;;;5018112;28;20464;-80
2022/06/04 12:04:16;;;;;;;17.13;10.15;;;;;;;;;;5018497;28;20118;-80
2022/06/04 12:06:49;;;;;;;11.20;7.38;;;;;;;;;;5017922;28;20125;-80
2022/06/04 12:09:24;;;;;;;13.27;7.32;;;;;;;;;;5018668;28;20074;-81
2022/06/04 12:11:56;;;;;;;10.90;7.88;;;;;;;;;;5018242;28;20050;-80
2022/06/04 12:14:39;;;;;;;10.82;7.50;;;;;;;;;;5018177;28;20493;-81
2022/06/04 12:17:13;;;;;;;14.13;8.60;;;;;;;;;;5017871;28;20125;-80
2022/06/04 12:25:36;;;;;;;13.35;8.07;;;;;;;;;;5018331;28;20108;-81
2022/06/04 12:28:18;;;;;;;29.40;18.23;;;;;;;;;;5015610;28;20505;-81
2022/06/04 12:30:46;;;;;;;16.48;9.95;;;;;;;;;;5016608;28;20085;-81
2022/06/04 12:33:25;;;;;;;15.18;8.45;;;;;;;;;;5017850;28;20085;-81
2022/06/04 12:36:00;;;;;;;12.13;6.55;;;;;;;;;;5017224;28;20072;-80
2022/06/04 12:38:27;;;;;;;11.40;7.05;;;;;;;;;;5017370;28;20411;-81
2022/06/04 12:41:06;;;;;;;11.30;7.75;;;;;;;;;;5018403;28;20133;-81
2022/06/04 12:43:35;;;;;;;12.90;7.15;;;;;;;;;;5018252;28;20077;-82
2022/06/04 12:46:14;;;;;;;10.18;7.22;;;;;;;;;;5020973;28;20085;-81
2022/06/04 12:48:51;;;;;;;11.32;8.02;;;;;;;;;;5020251;28;20108;-81
2022/06/04 12:51:35;;;;;;;11.35;7.72;;;;;;;;;;5019836;28;20049;-81
2022/06/04 12:54:06;;;;;;;15.82;8.15;;;;;;;;;;5018995;28;20503;-81
2022/06/04 12:56:35;;;;;;;10.20;7.97;;;;;;;;;;5019171;28;20049;-81
2022/06/04 12:59:06;;;;;;;10.65;7.18;;;;;;;;;;5029208;28;20045;-81
2022/06/04 13:01:38;;;;;;;11.75;6.75;;;;;;;;;;5047216;28;20033;-81
2022/06/04 13:04:20;;;;;;;10.57;7.03;;;;;;;;;;5058991;28;20108;-80
2022/06/04 13:06:49;;;;;;;13.45;7.72;;;;;;;;;;5053120;28;20522;-81
2022/06/04 13:09:32;;;;;;;13.20;8.02;;;;;;;;;;5039540;28;20081;-81
2022/06/04 13:12:16;;;;;;;15.82;8.15;;;;;;;;;;5037663;28;20485;-82
2022/06/04 13:14:48;;;;;;;10.07;7.35;;;;;;;;;;5037557;28;20041;-81
2022/06/04 13:17:26;;;;;;;13.48;7.45;;;;;;;;;;5044622;28;20059;-82
2022/06/04 13:20:23;;;;;;;12.38;7.20;;;;;;;;;;5039409;28;20515;-81
2022/06/04 13:22:54;;;;;;;10.18;7.50;;;;;;;;;;5038939;28;20049;-81
2022/06/04 13:25:27;;;;;;;16.30;9.10;;;;;;;;;;5038417;28;20045;-81
2022/06/04 13:27:56;;;;;;;13.48;8.52;;;;;;;;;;5042285;28;20045;-81
2022/06/04 13:30:25;;;;;;;16.08;11.98;;;;;;;;;;5044551;28;20080;-81
2022/06/04 13:32:52;;;;;;;14.98;11.02;;;;;;;;;;5039767;28;20084;-81
2022/06/04 13:35:21;;;;;;;16.23;9.23;;;;;;;;;;5038439;28;20496;-81
2022/06/04 13:37:50;;;;;;;16.25;10.35;;;;;;;;;;5037981;28;20053;-81
2022/06/04 13:40:22;;;;;;;11.03;7.80;;;;;;;;;;5037974;28;20049;-81
2022/06/04 13:42:50;;;;;;;12.38;7.70;;;;;;;;;;5037848;28;20073;-81
2022/06/04 13:45:32;;;;;;;11.73;8.75;;;;;;;;;;5036828;28;20133;-81
2022/06/04 13:48:02;;;;;;;11.50;8.27;;;;;;;;;;5037372;28;20470;-81
2022/06/04 13:50:31;;;;;;;12.80;9.43;;;;;;;;;;5039018;28;20046;-81
2022/06/04 13:53:00;;;;;;;15.20;9.48;;;;;;;;;;5055503;28;20045;-81
2022/06/04 13:55:33;;;;;;;13.87;8.77;;;;;;;;;;5055839;28;20036;-81
2022/06/04 13:58:04;;;;;;;14.38;8.40;;;;;;;;;;5053697;28;20041;-80
2022/06/04 14:00:34;;;;;;;14.07;9.13;;;;;;;;;;5016182;28;20110;-80
2022/06/04 14:03:03;;;;;;;;;;;;;;;;;;5015203;28;20132;-81
2022/06/04 14:05:44;;;;;;;13.45;9.75;;;;;;;;;;5014842;28;19989;-81
2022/06/04 14:08:13;;;;;;;13.18;8.20;;;;;;;;;;5015946;28;20077;-81
2022/06/04 14:10:43;;;;;;;12.02;8.77;;;;;;;;;;5016147;28;20057;-82
2022/06/04 14:13:20;;;;;;;11.50;8.77;;;;;;;;;;5016627;28;20120;-82
2022/06/04 14:16:10;;;;;;;14.43;8.13;;;;;;;;;;5016212;28;20077;-82
2022/06/04 14:19:07;;;;;;;13.60;9.32;;;;;;;;;;5016979;28;20488;-81
2022/06/04 14:21:47;;;;;;;12.48;8.02;;;;;;;;;;5016082;28;20121;-82
2022/06/04 14:24:25;;;;;;;14.68;9.35;;;;;;;;;;5016991;28;20053;-82
2022/06/04 14:27:06;;;;;;;14.68;8.75;;;;;;;;;;5016621;28;20068;-82
2022/06/04 14:29:41;;;;;;;13.27;9.35;;;;;;;;;;5015545;28;20041;-82
2022/06/04 14:32:20;;;;;;;14.82;9.23;;;;;;;;;;5015427;28;20628;-80
2022/06/04 14:34:47;;;;;;;12.65;9.40;;;;;;;;;;5016369;28;20132;-81
2022/06/04 14:37:22;;;;;;;12.88;8.95;;;;;;;;;;5016489;28;20048;-81
2022/06/04 14:39:50;;;;;;;14.25;8.77;;;;;;;;;;5017656;28;20068;-81
2022/06/04 14:42:48;;;;;;;11.43;9.15;;;;;;;;;;5016284;28;20085;-81
2022/06/04 14:45:22;;;;;;;11.60;9.20;;;;;;;;;;5014967;28;20132;-82
2022/06/04 14:48:14;;;;;;;10.80;8.75;;;;;;;;;;5016429;28;20549;-81
2022/06/04 14:50:48;;;;;;;11.82;9.57;;;;;;;;;;5015454;28;20077;-81
2022/06/04 14:53:16;;;;;;;15.90;10.13;;;;;;;;;;5016909;28;20267;-81
2022/06/04 14:56:13;;;;;;;15.23;10.00;;;;;;;;;;5016761;28;20050;-81
2022/06/04 14:59:02;;;;;;;14.98;10.20;;;;;;;;;;5024320;28;20459;-84
2022/06/04 15:01:53;;;;;;;;;;;;;;;;;;5037141;28;20111;-82
2022/06/04 15:04:57;;;;;;;13.27;10.38;;;;;;;;;;5037800;28;19921;-81
2022/06/04 15:07:49;;;;;;;15.65;11.43;;;;;;;;;;5037388;28;20137;-82
2022/06/04 15:10:25;;;;;;;13.98;10.73;;;;;;;;;;5037060;28;20516;-81
2022/06/04 15:13:06;;;;;;;18.05;12.50;;;;;;;;;;5037141;28;20045;-83
2022/06/04 15:15:50;;;;;;;16.40;12.35;;;;;;;;;;5037225;28;20046;-81
2022/06/04 15:18:31;;;;;;;18.52;12.25;;;;;;;;;;5038206;28;20049;-81
2022/06/04 15:21:06;;;;;;;19.40;11.07;;;;;;;;;;5039544;28;20073;-81
2022/06/04 15:23:57;;;;;;;13.93;10.52;;;;;;;;;;5038750;28;20148;-81